Flag for France

Past Weather in 43°16'11.5"N, 6°37'43.0"E, France — Yesterday and Last 2 Weeks

Currently: 68 °F. Sunny. (Weather station: Cannes Airport, France). See more current weather

Past Weather in 43°16'11.5"N, 6°37'43.0"E — Graph

°F

43°16'11.5"N, 6°37'43.0"E Temperature Yesterday

Maximum temperature yesterday: 75 °F (at 5:00 pm)
Minimum temperature yesterday: 52 °F (at 6:00 am)
Average temperature yesterday: 65 °F

High & Low Weather Summary for the Past Weeks

 TemperatureHumidityPressure
High77 °F (May 9, 5:00 pm)100% (May 16, 4:00 am)30.09 "Hg (May 16, 4:00 am)
Low52 °F (May 4, 5:00 am)35% (May 3, 8:00 pm)29.65 "Hg (May 16, 2:30 pm)
Average63 °F75%29.93 "Hg
* Reported May 3 5:00 pm — May 18 5:30 pm, 43°16'11.5"N, 6°37'43.0"E. Weather by CustomWeather, © 2024

Note: Actual official high and low records may vary slightly from our data, if they occured in-between our weather recording intervals... More about our weather records

43°16'11.5"N, 6°37'43.0"E Weather History for the Previous 24 Hours

Scroll right to see more
 ConditionsComfort  
Time TempWeatherWind HumidityBarometerVisibility
5:30 pm
Sat, May 18
70 °FPassing clouds.5 mph73%29.89 "HgN/A
5:00 pm70 °FPassing clouds.6 mph60%29.89 "HgN/A
4:00 pm70 °FPassing clouds.7 mph73%29.89 "HgN/A
3:30 pm70 °FPassing clouds.8 mph64%29.89 "HgN/A
3:00 pm70 °FPassing clouds.9 mph69%29.92 "HgN/A
2:30 pm70 °FPassing clouds.9 mph69%29.92 "HgN/A
2:00 pm70 °FSunny.10 mph69%29.92 "Hg10 mi
1:30 pm70 °FPassing clouds.8 mph69%29.92 "HgN/A
1:00 pm70 °FPassing clouds.8 mph69%29.92 "HgN/A
12:30 pm68 °FPassing clouds.9 mph69%29.92 "HgN/A
12:00 pm68 °FPartly sunny.9 mph73%29.92 "HgN/A
11:30 am70 °FScattered clouds.8 mph64%29.92 "HgN/A
11:00 am68 °FPartly sunny.8 mph69%29.92 "HgN/A
10:30 am70 °FPartly sunny.5 mph60%29.92 "HgN/A
10:00 am68 °FPartly sunny.7 mph64%29.92 "HgN/A
9:00 am66 °FScattered clouds.5 mph73%29.92 "HgN/A
8:30 am66 °FSunny.2 mph73%29.92 "Hg10 mi
8:00 am64 °FSunny.No wind78%29.92 "Hg10 mi
7:30 am61 °FSunny.2 mph83%29.92 "Hg10 mi
7:00 am57 °FSunny.3 mph94%29.89 "Hg10 mi
6:30 am57 °FSunny.2 mph94%29.89 "Hg10 mi
6:00 am57 °FPassing clouds.3 mph94%29.89 "HgN/A
5:30 am59 °FPassing clouds.3 mph88%29.92 "HgN/A
5:00 am59 °FPassing clouds.2 mph94%29.89 "HgN/A
4:00 am59 °FOvercast.3 mph94%29.89 "HgN/A
3:00 am61 °FOvercast.No wind88%29.92 "HgN/A
2:30 am61 °FOvercast.3 mph88%29.89 "HgN/A
2:00 am61 °FMostly cloudy.5 mph88%29.92 "HgN/A
1:30 am61 °FMostly cloudy.3 mph88%29.92 "HgN/A
1:00 am61 °FClear.3 mph88%29.92 "Hg10 mi
12:30 am61 °FClear.2 mph88%29.92 "Hg10 mi
12:00 am61 °FClear.No wind88%29.92 "Hg10 mi
11:30 pm
Fri, May 17
61 °FClear.1 mph88%29.89 "Hg10 mi
11:00 pm63 °FPassing clouds.3 mph83%29.89 "HgN/A
10:30 pm63 °FClear.3 mph83%29.89 "Hg10 mi
10:00 pm63 °FPassing clouds.5 mph88%29.89 "HgN/A
9:30 pm64 °FPassing clouds.5 mph83%29.89 "HgN/A
9:00 pm64 °FPassing clouds.7 mph83%29.86 "HgN/A
8:30 pm66 °FSunny.3 mph68%29.86 "Hg10 mi
8:00 pm70 °FPassing clouds.8 mph53%29.86 "HgN/A
7:30 pm72 °FPassing clouds.5 mph53%29.83 "HgN/A
7:00 pm70 °FPassing clouds.8 mph64%29.83 "HgN/A
Weather by CustomWeather, © 2024

See weather overview